WetterOnline ( https://www.wetteronline.de )

Wetter aktuell Stromboli

Aktuelles Wetter: Messina (51m)

6-stündlich | Neueste Meldungen
Ortszeit Temperatur Wetter
Mo, 30.11. 19:00 16.0° C leicht bewölkt
Mo, 30.11. 13:00 18.8° C leicht bewölkt
Mo, 30.11. 7:00 15.0° C bewölkt
Mo, 30.11. 1:00 14.8° C leicht bewölkt
So, 29.11. 19:00 15.0° C leicht bewölkt
So, 29.11. 13:00 18.4° C leicht bewölkt
So, 29.11. 7:00 14.2° C wolkig
So, 29.11. 1:00 14.4° C leichte Gewitter
Ortszeit Temperatur Wetter
Mo, 30.11. 21:00 16.2° C wolkig
Mo, 30.11. 20:55 16° C leicht bewölkt
Mo, 30.11. 20:00 16.4° C leicht bewölkt
Mo, 30.11. 19:55 16° C leicht bewölkt
Mo, 30.11. 19:00 16.0° C leicht bewölkt
Mo, 30.11. 18:55 16° C leicht bewölkt
Mo, 30.11. 18:00 16.0° C leicht bewölkt
Mo, 30.11. 17:55 16° C leicht bewölkt
Mo, 30.11. 17:00 16.6° C leicht bewölkt
Ortszeit Relative Feuchte Sichtweite
Mo, 30.11. 19:00 67% 16 km
Mo, 30.11. 13:00 43% 20 km
Mo, 30.11. 7:00 71% 10 km
Mo, 30.11. 1:00 73% 12 km
So, 29.11. 19:00 74% 12 km
So, 29.11. 13:00 40% 20 km
So, 29.11. 7:00 71% 12 km
So, 29.11. 1:00 75% 10 km
Ortszeit Relative Feuchte Sichtweite
Mo, 30.11. 21:00 62% 10 km
Mo, 30.11. 20:55 63% >10 km
Mo, 30.11. 20:00 67% 10 km
Mo, 30.11. 19:55 68% >10 km
Mo, 30.11. 19:00 67% 16 km
Mo, 30.11. 18:55 68% >10 km
Mo, 30.11. 18:00 68% 10 km
Mo, 30.11. 17:55 68% >10 km
Mo, 30.11. 17:00 60% 10 km
Ortszeit Niederschlagsmenge Niederschlagsart
Mo, 30.11. 19:00 0.0 l/m2 in 12 Std. -
Mo, 30.11. 13:00 0.0 l/m2 in 6 Std. -
Mo, 30.11. 7:00 3 l/m2 in 12 Std. Regen
Mo, 30.11. 1:00 0.0 l/m2 in 6 Std. -
So, 29.11. 19:00 0.0 l/m2 in 12 Std. -
So, 29.11. 13:00 0.0 l/m2 in 6 Std. -
So, 29.11. 7:00 27 l/m2 in 12 Std. Regen
So, 29.11. 1:00 24 l/m2 in 6 Std. Gewitter, Regen
Ortszeit Niederschlagsmenge Niederschlagsart
Mo, 30.11. 21:00 keine Meldung -
Mo, 30.11. 20:55 keine Meldung -
Mo, 30.11. 20:00 keine Meldung -
Mo, 30.11. 19:55 keine Meldung -
Mo, 30.11. 19:00 keine Meldung -
Mo, 30.11. 18:55 keine Meldung -
Mo, 30.11. 18:00 keine Meldung -
Mo, 30.11. 17:55 keine Meldung -
Mo, 30.11. 17:00 keine Meldung -
Ortszeit Stärke Spitze Richtung
km/h Bft. km/h Grad Sektor
Mo, 30.11. 19:00 4 1 - 310° NW
Mo, 30.11. 13:00 9 2 - 30° NO
Mo, 30.11. 7:00 15 3 - 270° W
Mo, 30.11. 1:00 9 2 - 310° NW
So, 29.11. 19:00 4 1 - - -
So, 29.11. 13:00 15 3 - 200° S
So, 29.11. 7:00 9 2 - 240° SW
So, 29.11. 1:00 7 2 - 240° SW
Ortszeit Stärke Spitze Richtung
km/h Bft. km/h Grad Sektor
Mo, 30.11. 21:00 9 2 - 300° NW
Mo, 30.11. 20:55 9 2 - 300° NW
Mo, 30.11. 20:00 11 2 - 320° NW
Mo, 30.11. 19:55 11 2 - 320° NW
Mo, 30.11. 19:00 4 1 - 310° NW
Mo, 30.11. 18:55 4 1 - 310° NW
Mo, 30.11. 18:00 0 0 - - -
Mo, 30.11. 17:55 0 0 - - -
Mo, 30.11. 17:00 2 1 - 260° W
Ortszeit Untergrenze Bedeckung Gattung
total tief tief mittel hoch
Mo, 30.11. 19:00 600 m 3/8 3/8 Sc - -
Mo, 30.11. 13:00 600 m 4/8 3/8 Sc - Ci
Mo, 30.11. 7:00 450 m 8/8 6/8 Cu Ac -
Mo, 30.11. 1:00 1050 m 2/8 1/8 Cu Ac -
So, 29.11. 19:00 900 m 2/8 2/8 Sc - -
So, 29.11. 13:00 900 m 5/8 3/8 Sc - Cs
So, 29.11. 7:00 900 m 8/8 2/8 Sc Ns -
So, 29.11. 1:00 600 m 7/8 6/8 Cb As -
Ortszeit Bedeckungsgrad in Achtel und Wolkenuntergrenze
Mo, 30.11. 21:00 2(600m) 4(2400m)
Mo, 30.11. 20:55 1-2(600m)
Mo, 30.11. 20:00 3(600m)
Mo, 30.11. 19:55 3-4(600m)
Mo, 30.11. 19:00 3(600m)
Mo, 30.11. 18:55 3-4(600m)
Mo, 30.11. 18:00 3(600m)
Mo, 30.11. 17:55 3-4(600m)
Mo, 30.11. 17:00 3(600m)
Ortszeit Luftdruck NN (hPa) Tendenz (hPa in 3 Std.)
Mo, 30.11. 19:00 1018 + 1,1
Mo, 30.11. 13:00 1016 + 1,5
Mo, 30.11. 7:00 1014 + 1,3
Mo, 30.11. 1:00 1011 + 1,7
So, 29.11. 19:00 1009 + 1,0
So, 29.11. 13:00 1008 - 0,1
So, 29.11. 7:00 1007 - 1,0
So, 29.11. 1:00 1009 - 0,2
Ortszeit Luftdruck NN (hPa) Tendenz (hPa in 3 Std.)
Mo, 30.11. 21:00 1019 + 0,5
Mo, 30.11. 20:55 1018 keine Meldung
Mo, 30.11. 20:00 1019 + 1,0
Mo, 30.11. 19:55 1018 keine Meldung
Mo, 30.11. 19:00 1018 + 1,1
Mo, 30.11. 18:55 1018 keine Meldung
Mo, 30.11. 18:00 1018 + 1,1
Mo, 30.11. 17:55 1018 keine Meldung
Mo, 30.11. 17:00 1018 + 1,2
Ortszeit Schneehöhe (cm)
Mo, 30.11. 19:00 -
Mo, 30.11. 13:00 -
Mo, 30.11. 7:00 -
Mo, 30.11. 1:00 -
So, 29.11. 19:00 -
So, 29.11. 13:00 -
So, 29.11. 7:00 0
So, 29.11. 1:00 -
Ortszeit Schneehöhe (cm)
Mo, 30.11. 21:00 -
Mo, 30.11. 20:55 -
Mo, 30.11. 20:00 -
Mo, 30.11. 19:55 -
Mo, 30.11. 19:00 -
Mo, 30.11. 18:55 -
Mo, 30.11. 18:00 -
Mo, 30.11. 17:55 -
Mo, 30.11. 17:00 -
Link zu dieser Seite / Seite empfehlen

Das Wetter in ...